createdAt,value
2023-06-17T00:01:20.838Z,92.15
2023-06-17T00:03:48.388Z,92.15
2023-06-17T00:06:15.852Z,91.16
2023-06-17T00:08:43.304Z,90.78
2023-06-17T00:11:11.963Z,89.73
2023-06-17T00:13:39.859Z,90.98
2023-06-17T00:16:07.390Z,90.07
2023-06-17T00:18:36.231Z,89.19
2023-06-17T00:21:03.934Z,88.65
2023-06-17T00:23:32.071Z,88.80
2023-06-17T00:25:59.605Z,89.24
2023-06-17T00:28:27.059Z,89.19
2023-06-17T00:30:54.556Z,88.27
2023-06-17T00:33:21.990Z,89.08
2023-06-17T00:35:51.862Z,89.19
2023-06-17T00:38:20.409Z,88.82
2023-06-17T00:40:47.849Z,88.29
2023-06-17T00:43:15.510Z,88.96
2023-06-17T00:45:43.032Z,90.01
2023-06-17T00:48:12.010Z,89.34
2023-06-17T00:50:39.976Z,89.28
2023-06-17T00:53:09.137Z,89.69
2023-06-17T00:55:37.040Z,92.40
2023-06-17T00:58:05.068Z,90.13
2023-06-17T01:00:32.513Z,89.94
2023-06-17T01:03:00.227Z,90.41
2023-06-17T01:05:28.418Z,89.09
2023-06-17T01:08:11.264Z,88.49
2023-06-17T01:10:46.706Z,89.15
2023-06-17T01:13:17.148Z,90.51
2023-06-17T01:15:45.643Z,90.45
2023-06-17T01:18:19.001Z,89.63
2023-06-17T01:20:48.243Z,89.18
2023-06-17T01:23:16.946Z,89.18
2023-06-17T01:25:47.075Z,89.75
2023-06-17T01:28:17.752Z,88.46
2023-06-17T01:30:46.152Z,88.48
2023-06-17T01:33:14.763Z,88.09
2023-06-17T01:35:47.991Z,88.47
2023-06-17T01:38:21.076Z,88.10
2023-06-17T01:40:59.728Z,89.97
2023-06-17T01:43:28.141Z,90.26
2023-06-17T01:45:57.554Z,89.16
2023-06-17T01:48:25.475Z,88.48
2023-06-17T01:50:53.195Z,88.86
2023-06-17T01:53:20.789Z,89.05
2023-06-17T01:55:48.279Z,88.52
2023-06-17T01:58:17.144Z,88.22
2023-06-17T02:00:44.620Z,88.86
2023-06-17T02:03:12.199Z,88.28
2023-06-17T02:05:39.686Z,89.00
2023-06-17T02:08:07.336Z,88.50
2023-06-17T02:10:34.912Z,88.38
2023-06-17T02:13:04.474Z,88.22
2023-06-17T02:15:33.249Z,89.58
2023-06-17T02:18:01.696Z,89.54
2023-06-17T02:20:29.306Z,90.36
2023-06-17T02:22:56.763Z,90.38
2023-06-17T02:25:24.254Z,88.52
2023-06-17T02:27:52.631Z,90.33
2023-06-17T02:30:20.502Z,89.40
2023-06-17T02:32:49.560Z,90.01
2023-06-17T02:35:17.268Z,89.24
2023-06-17T02:37:45.558Z,90.02
2023-06-17T02:40:13.135Z,90.71
2023-06-17T02:42:40.993Z,91.62
2023-06-17T02:45:12.267Z,91.88
2023-06-17T02:47:39.864Z,90.84
2023-06-17T02:50:09.597Z,89.14
2023-06-17T02:52:38.390Z,90.64
2023-06-17T02:55:06.968Z,90.60
2023-06-17T02:57:34.502Z,89.88
2023-06-17T03:00:02.025Z,91.43
2023-06-17T03:02:29.554Z,89.17
2023-06-17T03:04:57.882Z,88.65
2023-06-17T03:07:26.636Z,88.76
2023-06-17T03:09:54.088Z,88.09
2023-06-17T03:12:21.513Z,88.55
2023-06-17T03:14:49.056Z,87.81
2023-06-17T03:17:16.533Z,89.36
2023-06-17T03:19:44.882Z,89.33
2023-06-17T03:22:12.462Z,88.24
2023-06-17T03:24:41.420Z,89.96
2023-06-17T03:27:08.950Z,88.48
2023-06-17T03:29:36.618Z,88.76
2023-06-17T03:32:04.550Z,88.72
2023-06-17T03:34:32.623Z,88.27
2023-06-17T03:37:00.085Z,89.08
2023-06-17T03:39:27.565Z,90.67
2023-06-17T03:41:56.288Z,89.59
2023-06-17T03:44:23.703Z,88.71
2023-06-17T03:46:51.158Z,90.15
2023-06-17T03:49:18.607Z,92.17
2023-06-17T03:51:46.071Z,91.59
2023-06-17T03:54:13.478Z,90.41
2023-06-17T03:56:41.404Z,88.87
2023-06-17T03:59:12.149Z,89.38
2023-06-17T04:01:41.372Z,90.62
2023-06-17T04:04:08.960Z,89.78
2023-06-17T04:06:37.138Z,90.34
2023-06-17T04:09:05.019Z,90.18
2023-06-17T04:11:34.032Z,88.78
2023-06-17T04:14:01.632Z,90.21
2023-06-17T04:16:31.776Z,90.36
2023-06-17T04:18:59.572Z,90.33
2023-06-17T04:21:27.690Z,89.90
2023-06-17T04:23:55.177Z,88.55
2023-06-17T04:26:24.013Z,89.53
2023-06-17T04:28:51.479Z,91.15
2023-06-17T04:31:18.920Z,90.46
2023-06-17T04:33:47.783Z,89.95
2023-06-17T04:36:15.561Z,89.31
2023-06-17T04:38:43.066Z,89.64
2023-06-17T04:41:10.581Z,92.71
2023-06-17T04:43:38.847Z,90.41
2023-06-17T04:46:07.119Z,88.93
2023-06-17T04:48:34.859Z,88.79
2023-06-17T04:51:03.692Z,90.64
2023-06-17T04:53:31.136Z,90.21
2023-06-17T04:55:58.735Z,91.75
2023-06-17T04:58:26.269Z,90.27
2023-06-17T05:00:53.787Z,89.19
2023-06-17T05:03:21.284Z,91.37
2023-06-17T05:05:48.928Z,88.57
2023-06-17T05:08:17.699Z,91.69
2023-06-17T05:10:45.171Z,89.83
2023-06-17T05:13:12.607Z,90.02
2023-06-17T05:15:40.040Z,88.64
2023-06-17T05:18:07.592Z,88.40
2023-06-17T05:20:35.138Z,88.67
2023-06-17T05:23:02.660Z,88.10
2023-06-17T05:25:31.397Z,90.22
2023-06-17T05:27:58.850Z,91.05
2023-06-17T05:30:26.336Z,88.57
2023-06-17T05:32:53.859Z,87.53
2023-06-17T05:35:21.414Z,88.86
2023-06-17T05:37:48.878Z,88.31
2023-06-17T05:40:16.418Z,87.26
2023-06-17T05:42:45.166Z,87.24
2023-06-17T05:45:12.799Z,85.72
2023-06-17T05:47:40.312Z,86.50
2023-06-17T05:50:08.154Z,86.80
2023-06-17T05:52:35.585Z,91.47
2023-06-17T05:55:03.012Z,87.76
2023-06-17T05:57:30.640Z,86.06
2023-06-17T05:59:59.412Z,87.98
2023-06-17T06:02:26.889Z,87.02
2023-06-17T06:04:54.357Z,86.76
2023-06-17T06:07:21.785Z,87.56
2023-06-17T06:09:49.451Z,91.36
2023-06-17T06:12:16.877Z,92.92
2023-06-17T06:14:44.949Z,90.75
2023-06-17T06:17:13.756Z,92.39
2023-06-17T06:19:41.181Z,89.59
2023-06-17T06:22:08.702Z,91.63
2023-06-17T06:24:36.169Z,90.89
2023-06-17T06:27:03.676Z,88.83
2023-06-17T06:29:31.169Z,89.06
2023-06-17T06:31:58.587Z,87.73
2023-06-17T06:34:27.312Z,86.50
2023-06-17T06:36:56.342Z,84.77
2023-06-17T06:39:23.850Z,85.89
2023-06-17T06:41:51.305Z,83.86
2023-06-17T06:44:19.228Z,81.70
2023-06-17T06:46:47.758Z,82.05
2023-06-17T06:49:15.268Z,82.81
2023-06-17T06:51:43.998Z,82.53
2023-06-17T06:54:11.467Z,83.40
2023-06-17T06:56:38.890Z,82.71
2023-06-17T06:59:06.413Z,83.23
2023-06-17T07:01:33.896Z,85.82
2023-06-17T07:04:01.479Z,84.70
2023-06-17T07:06:28.928Z,86.66
2023-06-17T07:08:57.673Z,85.79
2023-06-17T07:11:25.096Z,88.87
2023-06-17T07:13:52.557Z,85.36
2023-06-17T07:16:20.188Z,85.48
2023-06-17T07:18:47.642Z,84.75
2023-06-17T07:21:15.065Z,80.86
2023-06-17T07:23:42.516Z,86.13
2023-06-17T07:26:11.263Z,83.50
2023-06-17T07:28:38.706Z,83.06
2023-06-17T07:31:06.586Z,86.18
2023-06-17T07:33:34.163Z,85.88
2023-06-17T07:36:01.606Z,86.13
2023-06-17T07:38:29.068Z,87.43
2023-06-17T07:40:56.535Z,87.08
2023-06-17T07:43:25.362Z,85.96
2023-06-17T07:45:52.862Z,83.19
2023-06-17T07:48:20.478Z,84.11
2023-06-17T07:50:47.891Z,82.62
2023-06-17T07:53:16.357Z,81.56
2023-06-17T07:55:43.937Z,81.60
2023-06-17T07:58:11.692Z,83.73
2023-06-17T08:00:40.445Z,85.90
2023-06-17T08:03:09.144Z,83.97
2023-06-17T08:05:38.021Z,85.38
2023-06-17T08:08:05.822Z,84.62
2023-06-17T08:10:33.717Z,82.24
2023-06-17T08:13:01.238Z,83.77
2023-06-17T08:15:29.388Z,84.96
2023-06-17T08:17:58.311Z,83.02
2023-06-17T08:20:25.996Z,82.01
2023-06-17T08:22:53.523Z,81.54
2023-06-17T08:25:21.765Z,83.37
2023-06-17T08:27:49.486Z,82.19
2023-06-17T08:30:17.069Z,86.82
2023-06-17T08:32:44.740Z,85.51
2023-06-17T08:35:15.453Z,86.03
2023-06-17T08:37:42.969Z,82.75
2023-06-17T08:40:11.157Z,85.19
2023-06-17T08:42:40.340Z,84.48
2023-06-17T08:45:08.887Z,84.59
2023-06-17T08:47:36.916Z,84.20
2023-06-17T08:50:05.211Z,84.58
2023-06-17T08:52:35.778Z,79.76
2023-06-17T08:55:04.044Z,82.14
2023-06-17T08:57:32.862Z,81.23
2023-06-17T09:00:00.482Z,80.01
2023-06-17T09:02:29.027Z,78.78
2023-06-17T09:04:56.756Z,83.02
2023-06-17T09:07:26.755Z,79.27
2023-06-17T09:09:56.797Z,81.70
2023-06-17T09:12:26.437Z,84.51
2023-06-17T09:14:55.688Z,85.19
2023-06-17T09:17:33.584Z,86.47
2023-06-17T09:20:11.278Z,83.66
2023-06-17T09:22:41.652Z,78.69
2023-06-17T09:25:15.503Z,78.89
2023-06-17T09:27:58.411Z,78.09
2023-06-17T09:30:30.355Z,78.79
2023-06-17T09:32:57.863Z,78.29
2023-06-17T09:35:25.478Z,78.73
2023-06-17T09:38:03.124Z,77.99
2023-06-17T09:40:35.121Z,81.64
2023-06-17T09:45:33.842Z,83.79
2023-06-17T09:48:01.284Z,81.18
2023-06-17T09:50:28.719Z,80.91
2023-06-17T09:52:57.043Z,81.29
2023-06-17T09:55:24.829Z,80.87
2023-06-17T09:57:54.805Z,81.96
2023-06-17T10:00:26.563Z,79.77
2023-06-17T10:02:55.125Z,81.09
2023-06-17T10:05:24.922Z,79.27
2023-06-17T10:07:54.829Z,77.49
2023-06-17T10:10:24.545Z,80.09
2023-06-17T10:12:56.882Z,79.09
2023-06-17T10:15:26.235Z,79.23
2023-06-17T10:17:55.899Z,75.24
2023-06-17T10:20:26.051Z,79.12
2023-06-17T10:22:56.058Z,76.57
2023-06-17T10:25:25.363Z,76.79
2023-06-17T10:27:54.617Z,75.11
2023-06-17T10:30:24.914Z,78.36
2023-06-17T10:33:00.268Z,76.00
2023-06-17T10:35:38.851Z,75.95
2023-06-17T10:38:07.628Z,79.44
2023-06-17T10:40:37.285Z,75.10
2023-06-17T10:43:22.154Z,72.17
2023-06-17T10:45:52.194Z,74.02
2023-06-17T10:48:23.341Z,74.49
2023-06-17T10:50:56.303Z,72.53
2023-06-17T10:53:29.283Z,72.72
2023-06-17T10:55:58.344Z,71.81
2023-06-17T10:58:32.810Z,74.30
2023-06-17T11:01:05.296Z,75.08
2023-06-17T11:03:33.139Z,73.36
2023-06-17T11:06:02.152Z,70.35
2023-06-17T11:08:31.292Z,68.58
2023-06-17T11:11:12.904Z,70.50
2023-06-17T11:13:43.062Z,70.96
2023-06-17T11:16:11.579Z,72.82
2023-06-17T11:18:40.076Z,77.35
2023-06-17T11:21:07.977Z,80.51
2023-06-17T11:23:36.855Z,81.58
2023-06-17T11:26:06.114Z,84.11
2023-06-17T11:28:33.995Z,87.06
2023-06-17T11:31:03.862Z,76.27
2023-06-17T11:33:32.117Z,77.46
2023-06-17T11:35:59.650Z,85.84
2023-06-17T11:38:28.301Z,89.43
2023-06-17T11:40:56.966Z,92.69
2023-06-17T11:43:27.321Z,88.80
2023-06-17T11:45:58.698Z,86.90
2023-06-17T11:48:31.381Z,82.68
2023-06-17T11:50:58.967Z,78.44
2023-06-17T11:53:30.683Z,78.97
2023-06-17T11:56:03.606Z,79.72
2023-06-17T11:58:31.291Z,79.32
2023-06-17T12:01:02.456Z,78.29
2023-06-17T12:03:31.290Z,82.30
2023-06-17T12:05:59.040Z,79.57
2023-06-17T12:08:32.363Z,80.29
2023-06-17T12:11:00.016Z,81.77
2023-06-17T12:13:38.608Z,83.68
2023-06-17T12:16:10.558Z,81.65
2023-06-17T12:18:39.377Z,82.44
2023-06-17T12:21:11.932Z,84.98
2023-06-17T12:23:39.416Z,83.02
2023-06-17T12:26:07.005Z,80.99
2023-06-17T12:28:34.500Z,81.58
2023-06-17T12:31:03.233Z,81.91
2023-06-17T12:33:31.010Z,81.52
2023-06-17T12:36:00.634Z,82.17
2023-06-17T12:38:30.486Z,84.01
2023-06-17T12:40:58.257Z,85.71
2023-06-17T12:43:25.728Z,85.24
2023-06-17T12:45:53.217Z,83.31
2023-06-17T12:48:20.677Z,82.09
2023-06-17T12:50:48.289Z,83.46
2023-06-17T12:53:17.137Z,82.08
2023-06-17T12:55:44.717Z,81.59
2023-06-17T12:58:13.010Z,81.87
2023-06-17T13:00:41.603Z,79.09
2023-06-17T13:03:09.558Z,78.31
2023-06-17T13:05:37.038Z,78.35
2023-06-17T13:08:04.677Z,80.75
2023-06-17T13:10:34.293Z,77.26
2023-06-17T13:13:01.818Z,77.92
2023-06-17T13:15:30.766Z,79.06
2023-06-17T13:17:58.429Z,81.37
2023-06-17T13:20:26.751Z,81.95
2023-06-17T13:22:54.251Z,82.12
2023-06-17T13:25:21.683Z,82.83
2023-06-17T13:27:50.486Z,83.35
2023-06-17T13:30:18.386Z,80.34
2023-06-17T13:32:46.091Z,82.83
2023-06-17T13:35:13.597Z,84.10
2023-06-17T13:37:41.006Z,82.67
2023-06-17T13:40:09.588Z,81.23
2023-06-17T13:42:37.025Z,82.39
2023-06-17T13:45:07.078Z,84.83
2023-06-17T13:47:34.643Z,82.30
2023-06-17T13:50:02.623Z,83.73
2023-06-17T13:52:30.121Z,87.51
2023-06-17T13:54:57.604Z,88.28
2023-06-17T13:57:25.060Z,87.43
2023-06-17T13:59:52.506Z,88.54
2023-06-17T14:02:21.366Z,86.67
2023-06-17T14:04:49.490Z,87.62
2023-06-17T14:07:16.934Z,86.21
2023-06-17T14:09:44.509Z,83.28
2023-06-17T14:12:12.124Z,83.92
2023-06-17T14:14:39.731Z,83.07
2023-06-17T14:17:07.611Z,81.05
2023-06-17T14:19:36.623Z,82.08
2023-06-17T14:22:07.007Z,80.00
2023-06-17T14:24:39.745Z,78.40
2023-06-17T14:27:40.847Z,72.78
2023-06-17T14:30:11.171Z,74.97
2023-06-17T14:32:39.033Z,74.15
2023-06-17T14:35:09.879Z,70.63
2023-06-17T14:37:37.641Z,71.29
2023-06-17T14:40:05.817Z,73.56
2023-06-17T14:42:34.000Z,71.76
2023-06-17T14:45:01.729Z,73.37
2023-06-17T14:47:29.442Z,70.86
2023-06-17T14:49:56.993Z,73.08
2023-06-17T14:52:27.121Z,70.69
2023-06-17T14:54:54.862Z,68.80
2023-06-17T14:57:22.817Z,69.97
2023-06-17T14:59:50.591Z,67.58
2023-06-17T15:02:36.595Z,69.07
2023-06-17T15:05:04.143Z,70.28
2023-06-17T15:07:32.913Z,69.09
2023-06-17T15:10:00.327Z,70.60
2023-06-17T15:12:27.774Z,70.51
2023-06-17T15:14:55.681Z,69.82
2023-06-17T15:17:23.219Z,73.12
2023-06-17T15:19:50.669Z,73.14
2023-06-17T15:22:18.123Z,75.60
2023-06-17T15:24:46.879Z,72.04
2023-06-17T15:27:14.366Z,73.21
2023-06-17T15:29:41.816Z,73.93
2023-06-17T15:32:09.705Z,72.11
2023-06-17T15:34:37.136Z,75.56
2023-06-17T15:37:05.243Z,75.56
2023-06-17T15:39:33.491Z,75.27
2023-06-17T15:42:02.291Z,74.84
2023-06-17T15:44:29.719Z,77.35
2023-06-17T15:46:57.175Z,76.13
2023-06-17T15:49:24.686Z,74.85
2023-06-17T15:51:52.156Z,77.28
2023-06-17T15:54:20.267Z,75.32
2023-06-17T15:56:47.887Z,75.42
2023-06-17T15:59:16.782Z,73.49
2023-06-17T16:01:44.519Z,73.93
2023-06-17T16:04:32.316Z,72.77
2023-06-17T16:07:00.176Z,74.76
2023-06-17T16:09:29.137Z,74.40
2023-06-17T16:11:56.564Z,74.63
2023-06-17T16:14:25.370Z,76.47
2023-06-17T16:16:52.961Z,77.00
2023-06-17T16:19:22.560Z,77.91
2023-06-17T16:21:50.492Z,75.62
2023-06-17T16:24:18.012Z,75.67
2023-06-17T16:26:45.499Z,77.14
2023-06-17T16:29:13.386Z,75.66
2023-06-17T16:31:42.225Z,74.92
2023-06-17T16:34:09.699Z,76.57
2023-06-17T16:36:37.160Z,78.91
2023-06-17T16:39:04.878Z,78.17
2023-06-17T16:41:32.345Z,77.60
2023-06-17T16:43:59.755Z,76.37
2023-06-17T16:46:27.241Z,78.48
2023-06-17T16:48:56.088Z,75.98
2023-06-17T16:51:23.547Z,77.49
2023-06-17T16:53:51.019Z,78.04
2023-06-17T16:56:18.609Z,76.61
2023-06-17T16:58:46.031Z,76.13
2023-06-17T17:01:13.505Z,74.91
2023-06-17T17:03:41.050Z,73.84
2023-06-17T17:06:10.023Z,74.22
2023-06-17T17:08:37.470Z,72.72
2023-06-17T17:11:05.172Z,73.09
2023-06-17T17:13:47.118Z,73.70
2023-06-17T17:16:15.834Z,72.31
2023-06-17T17:18:43.305Z,73.52
2023-06-17T17:21:12.105Z,75.08
2023-06-17T17:23:42.130Z,71.80
2023-06-17T17:26:12.970Z,73.32
2023-06-17T17:28:40.751Z,74.01
2023-06-17T17:31:08.239Z,70.57
2023-06-17T17:33:35.841Z,71.83
2023-06-17T17:36:03.444Z,69.98
2023-06-17T17:38:32.427Z,68.77
2023-06-17T17:40:59.881Z,67.81
2023-06-17T17:43:30.546Z,67.66
2023-06-17T17:45:58.547Z,67.53
2023-06-17T17:48:26.188Z,67.46
2023-06-17T17:50:53.622Z,65.52
2023-06-17T17:53:21.405Z,66.25
2023-06-17T17:55:50.402Z,68.19
2023-06-17T17:58:18.431Z,68.36
2023-06-17T18:00:46.501Z,67.33
2023-06-17T18:03:14.442Z,66.30
2023-06-17T18:05:41.948Z,66.23
2023-06-17T18:08:09.510Z,68.27
2023-06-17T18:10:36.970Z,69.36
2023-06-17T18:13:05.835Z,68.99
2023-06-17T18:15:33.276Z,69.52
2023-06-17T18:18:01.232Z,68.78
2023-06-17T18:20:28.744Z,68.77
2023-06-17T18:22:56.518Z,68.29
2023-06-17T18:25:23.958Z,68.65
2023-06-17T18:27:51.421Z,67.21
2023-06-17T18:30:20.544Z,65.82
2023-06-17T18:32:48.264Z,66.48
2023-06-17T18:35:15.957Z,66.97
2023-06-17T18:37:43.595Z,67.26
2023-06-17T18:40:12.171Z,67.31
2023-06-17T18:42:39.650Z,68.31
2023-06-17T18:45:09.775Z,67.58
2023-06-17T18:47:38.914Z,67.35
2023-06-17T18:50:07.830Z,67.61
2023-06-17T18:52:35.334Z,67.38
2023-06-17T18:55:02.780Z,68.22
2023-06-17T18:57:30.635Z,68.01
2023-06-17T18:59:58.129Z,69.07
2023-06-17T19:02:27.214Z,68.46
2023-06-17T19:04:56.861Z,70.86
2023-06-17T19:07:24.352Z,69.85
2023-06-17T19:09:51.951Z,69.85
2023-06-17T19:12:19.708Z,70.65
2023-06-17T19:14:47.231Z,72.29
2023-06-17T19:17:14.726Z,73.00
2023-06-17T19:19:42.263Z,73.07
2023-06-17T19:22:11.035Z,72.80
2023-06-17T19:24:38.652Z,72.73
2023-06-17T19:27:06.616Z,73.29
2023-06-17T19:29:34.055Z,74.24
2023-06-17T19:32:01.509Z,75.38
2023-06-17T19:34:28.918Z,76.26
2023-06-17T19:36:56.431Z,76.54
2023-06-17T19:39:25.187Z,76.00
2023-06-17T19:41:52.640Z,77.84
2023-06-17T19:44:20.094Z,77.28
2023-06-17T19:46:47.587Z,77.19
2023-06-17T19:49:15.098Z,79.74
2023-06-17T19:51:42.513Z,77.91
2023-06-17T19:54:10.042Z,77.53
2023-06-17T19:56:38.810Z,78.76
2023-06-17T19:59:06.322Z,78.50
2023-06-17T20:01:33.819Z,77.95
2023-06-17T20:04:01.291Z,78.10
2023-06-17T20:06:28.820Z,79.03
2023-06-17T20:08:56.265Z,79.52
2023-06-17T20:11:25.658Z,80.09
2023-06-17T20:13:54.518Z,80.10
2023-06-17T20:16:22.293Z,80.82
2023-06-17T20:18:49.801Z,81.04
2023-06-17T20:21:17.746Z,81.22
2023-06-17T20:23:45.231Z,80.69
2023-06-17T20:26:12.722Z,81.38
2023-06-17T20:28:40.228Z,81.49
2023-06-17T20:31:09.865Z,82.63
2023-06-17T20:33:38.828Z,82.47
2023-06-17T20:36:06.797Z,81.81
2023-06-17T20:38:34.266Z,82.42
2023-06-17T20:41:02.499Z,83.55
2023-06-17T20:43:30.038Z,83.80
2023-06-17T20:45:57.939Z,83.22
2023-06-17T20:48:30.069Z,83.33
2023-06-17T20:50:57.533Z,82.79
2023-06-17T20:53:25.003Z,83.19
2023-06-17T20:55:52.471Z,83.54
2023-06-17T20:58:19.906Z,83.00
2023-06-17T21:00:47.558Z,83.21
2023-06-17T21:03:15.495Z,83.85
2023-06-17T21:05:44.405Z,82.99
2023-06-17T21:08:11.854Z,83.37
2023-06-17T21:10:39.413Z,83.11
2023-06-17T21:13:07.167Z,82.83
2023-06-17T21:15:34.625Z,83.15
2023-06-17T21:18:02.198Z,84.09
2023-06-17T21:20:29.887Z,85.12
2023-06-17T21:23:00.774Z,85.93
2023-06-17T21:25:28.421Z,86.23
2023-06-17T21:27:56.487Z,85.49
2023-06-17T21:30:24.575Z,86.81
2023-06-17T21:32:52.265Z,85.06
2023-06-17T21:35:19.746Z,86.69
2023-06-17T21:37:47.355Z,86.03
2023-06-17T21:40:16.446Z,85.82
2023-06-17T21:42:43.875Z,85.85
2023-06-17T21:45:11.722Z,86.53
2023-06-17T21:47:39.186Z,86.52
2023-06-17T21:50:07.933Z,86.27
2023-06-17T21:52:35.411Z,86.82
2023-06-17T21:55:03.989Z,86.93
2023-06-17T21:57:32.962Z,86.68
2023-06-17T22:00:00.538Z,86.91
2023-06-17T22:02:28.328Z,87.29
2023-06-17T22:04:55.976Z,87.73
2023-06-17T22:07:23.423Z,87.26
2023-06-17T22:09:51.010Z,86.75
2023-06-17T22:12:18.575Z,86.98
2023-06-17T22:14:47.363Z,87.04
2023-06-17T22:17:14.810Z,87.25
2023-06-17T22:19:42.313Z,87.23
2023-06-17T22:22:09.770Z,87.25
2023-06-17T22:24:38.672Z,87.55
2023-06-17T22:27:07.575Z,87.49
2023-06-17T22:29:34.980Z,87.79
2023-06-17T22:32:03.955Z,88.36
2023-06-17T22:34:31.378Z,88.50
2023-06-17T22:36:58.857Z,89.45
2023-06-17T22:39:26.268Z,87.58
2023-06-17T22:41:53.955Z,87.34
2023-06-17T22:44:21.758Z,88.05
2023-06-17T22:46:49.364Z,87.92
2023-06-17T22:49:18.211Z,87.89
2023-06-17T22:51:45.685Z,88.50
2023-06-17T22:54:13.702Z,89.14
2023-06-17T22:56:41.974Z,88.95
2023-06-17T22:59:09.442Z,88.03
2023-06-17T23:01:36.908Z,87.99
2023-06-17T23:04:04.456Z,88.39
2023-06-17T23:06:33.265Z,87.41
2023-06-17T23:09:00.693Z,87.69
2023-06-17T23:11:28.129Z,88.56
2023-06-17T23:13:55.830Z,88.70
2023-06-17T23:16:23.297Z,88.63
2023-06-17T23:18:50.745Z,89.00
2023-06-17T23:21:19.773Z,89.20
2023-06-17T23:23:49.706Z,88.78
2023-06-17T23:26:17.643Z,88.74
2023-06-17T23:28:45.518Z,89.75
2023-06-17T23:31:14.981Z,89.86
2023-06-17T23:33:42.636Z,89.89
2023-06-17T23:36:10.393Z,90.26
2023-06-17T23:38:40.668Z,89.58
2023-06-17T23:41:09.559Z,88.79
2023-06-17T23:43:37.018Z,88.82
2023-06-17T23:46:04.735Z,88.38
2023-06-17T23:48:33.059Z,89.23
2023-06-17T23:51:00.651Z,89.19
2023-06-17T23:53:28.140Z,88.67
2023-06-17T23:55:56.006Z,89.60
2023-06-17T23:58:26.129Z,88.63
